sensor_id;sensor_type;location;lat;lon;timestamp;P1;durP1;ratioP1;P2;durP2;ratioP2
35909;SDS011;22004;49.120;-0.200;2023-03-14T00:01:53;5.70;;;1.70;;
35909;SDS011;22004;49.120;-0.200;2023-03-14T00:04:18;4.72;;;1.25;;
35909;SDS011;22004;49.120;-0.200;2023-03-14T00:06:44;7.78;;;1.67;;
35909;SDS011;22004;49.120;-0.200;2023-03-14T00:09:11;8.13;;;2.08;;
35909;SDS011;22004;49.120;-0.200;2023-03-14T00:11:37;7.20;;;1.58;;
35909;SDS011;22004;49.120;-0.200;2023-03-14T00:14:02;6.20;;;1.27;;
35909;SDS011;22004;49.120;-0.200;2023-03-14T00:16:28;4.47;;;1.17;;
35909;SDS011;22004;49.120;-0.200;2023-03-14T00:18:53;7.57;;;1.48;;
35909;SDS011;22004;49.120;-0.200;2023-03-14T00:21:18;6.40;;;1.17;;
35909;SDS011;22004;49.120;-0.200;2023-03-14T00:23:44;6.03;;;1.33;;
35909;SDS011;22004;49.120;-0.200;2023-03-14T00:26:11;6.32;;;1.13;;
35909;SDS011;22004;49.120;-0.200;2023-03-14T00:28:38;6.00;;;1.33;;
35909;SDS011;22004;49.120;-0.200;2023-03-14T00:31:04;7.30;;;1.52;;
35909;SDS011;22004;49.120;-0.200;2023-03-14T00:33:31;5.60;;;1.17;;
35909;SDS011;22004;49.120;-0.200;2023-03-14T00:35:58;8.52;;;1.73;;
35909;SDS011;22004;49.120;-0.200;2023-03-14T00:38:29;3.75;;;0.95;;
35909;SDS011;22004;49.120;-0.200;2023-03-14T00:40:55;6.30;;;1.50;;
35909;SDS011;22004;49.120;-0.200;2023-03-14T00:43:21;4.93;;;1.10;;
35909;SDS011;22004;49.120;-0.200;2023-03-14T00:45:47;6.68;;;0.95;;
35909;SDS011;22004;49.120;-0.200;2023-03-14T00:48:17;4.97;;;1.00;;
35909;SDS011;22004;49.120;-0.200;2023-03-14T00:50:43;3.65;;;0.98;;
35909;SDS011;22004;49.120;-0.200;2023-03-14T00:53:09;3.38;;;1.20;;
35909;SDS011;22004;49.120;-0.200;2023-03-14T00:55:38;6.05;;;1.27;;
35909;SDS011;22004;49.120;-0.200;2023-03-14T00:58:04;5.15;;;0.95;;
35909;SDS011;22004;49.120;-0.200;2023-03-14T01:00:30;4.28;;;1.00;;
35909;SDS011;22004;49.120;-0.200;2023-03-14T01:02:55;4.50;;;0.90;;
35909;SDS011;22004;49.120;-0.200;2023-03-14T01:05:21;2.85;;;0.80;;
35909;SDS011;22004;49.120;-0.200;2023-03-14T01:07:47;4.55;;;0.73;;
35909;SDS011;22004;49.120;-0.200;2023-03-14T01:10:12;3.30;;;0.90;;
35909;SDS011;22004;49.120;-0.200;2023-03-14T01:12:38;3.92;;;1.08;;
35909;SDS011;22004;49.120;-0.200;2023-03-14T01:15:03;6.97;;;0.98;;
35909;SDS011;22004;49.120;-0.200;2023-03-14T01:17:29;2.95;;;0.80;;
35909;SDS011;22004;49.120;-0.200;2023-03-14T01:19:54;3.22;;;0.80;;
35909;SDS011;22004;49.120;-0.200;2023-03-14T01:22:19;2.78;;;0.85;;
35909;SDS011;22004;49.120;-0.200;2023-03-14T01:24:46;2.25;;;0.60;;
35909;SDS011;22004;49.120;-0.200;2023-03-14T01:27:12;2.67;;;0.77;;
35909;SDS011;22004;49.120;-0.200;2023-03-14T01:29:37;1.77;;;0.70;;
35909;SDS011;22004;49.120;-0.200;2023-03-14T01:32:03;4.78;;;0.93;;
35909;SDS011;22004;49.120;-0.200;2023-03-14T01:34:29;2.05;;;0.60;;
35909;SDS011;22004;49.120;-0.200;2023-03-14T01:36:54;4.97;;;0.80;;
35909;SDS011;22004;49.120;-0.200;2023-03-14T01:39:19;2.45;;;0.50;;
35909;SDS011;22004;49.120;-0.200;2023-03-14T01:41:45;1.55;;;0.60;;
35909;SDS011;22004;49.120;-0.200;2023-03-14T01:44:11;5.63;;;0.88;;
35909;SDS011;22004;49.120;-0.200;2023-03-14T01:49:09;1.67;;;0.55;;
35909;SDS011;22004;49.120;-0.200;2023-03-14T01:57:08;0.82;;;0.30;;
35909;SDS011;22004;49.120;-0.200;2023-03-14T01:59:39;1.48;;;0.77;;
35909;SDS011;22004;49.120;-0.200;2023-03-14T02:02:07;1.33;;;0.50;;
35909;SDS011;22004;49.120;-0.200;2023-03-14T02:04:35;1.35;;;0.40;;
35909;SDS011;22004;49.120;-0.200;2023-03-14T02:09:36;0.35;;;0.30;;
35909;SDS011;22004;49.120;-0.200;2023-03-14T02:12:04;2.38;;;0.30;;
35909;SDS011;22004;49.120;-0.200;2023-03-14T02:14:32;0.55;;;0.28;;
35909;SDS011;22004;49.120;-0.200;2023-03-14T02:16:58;1.42;;;0.30;;
35909;SDS011;22004;49.120;-0.200;2023-03-14T02:19:30;0.65;;;0.32;;
35909;SDS011;22004;49.120;-0.200;2023-03-14T02:22:10;0.43;;;0.30;;
35909;SDS011;22004;49.120;-0.200;2023-03-14T02:24:41;0.43;;;0.30;;
35909;SDS011;22004;49.120;-0.200;2023-03-14T02:27:14;1.95;;;0.52;;
35909;SDS011;22004;49.120;-0.200;2023-03-14T02:29:49;1.38;;;0.32;;
35909;SDS011;22004;49.120;-0.200;2023-03-14T02:32:19;5.38;;;0.70;;
35909;SDS011;22004;49.120;-0.200;2023-03-14T02:34:48;0.82;;;0.45;;
35909;SDS011;22004;49.120;-0.200;2023-03-14T02:37:17;8.10;;;0.73;;
35909;SDS011;22004;49.120;-0.200;2023-03-14T02:39:46;1.27;;;0.50;;
35909;SDS011;22004;49.120;-0.200;2023-03-14T02:42:14;0.95;;;0.45;;
35909;SDS011;22004;49.120;-0.200;2023-03-14T02:44:50;3.20;;;0.32;;
35909;SDS011;22004;49.120;-0.200;2023-03-14T02:47:26;10.90;;;1.02;;
35909;SDS011;22004;49.120;-0.200;2023-03-14T02:49:56;3.80;;;0.82;;
35909;SDS011;22004;49.120;-0.200;2023-03-14T02:52:26;4.90;;;1.02;;
35909;SDS011;22004;49.120;-0.200;2023-03-14T02:54:52;4.45;;;0.93;;
35909;SDS011;22004;49.120;-0.200;2023-03-14T02:57:17;6.65;;;1.02;;
35909;SDS011;22004;49.120;-0.200;2023-03-14T02:59:43;5.85;;;1.33;;
35909;SDS011;22004;49.120;-0.200;2023-03-14T03:02:08;2.60;;;0.63;;
35909;SDS011;22004;49.120;-0.200;2023-03-14T03:04:33;6.97;;;1.30;;
35909;SDS011;22004;49.120;-0.200;2023-03-14T03:06:59;6.40;;;1.20;;
35909;SDS011;22004;49.120;-0.200;2023-03-14T03:09:24;6.20;;;0.70;;
35909;SDS011;22004;49.120;-0.200;2023-03-14T03:11:49;5.75;;;0.50;;
35909;SDS011;22004;49.120;-0.200;2023-03-14T03:14:15;9.07;;;1.52;;
35909;SDS011;22004;49.120;-0.200;2023-03-14T03:16:40;8.95;;;1.08;;
35909;SDS011;22004;49.120;-0.200;2023-03-14T03:19:05;3.70;;;1.08;;
35909;SDS011;22004;49.120;-0.200;2023-03-14T03:21:31;11.07;;;1.42;;
35909;SDS011;22004;49.120;-0.200;2023-03-14T03:23:56;6.45;;;1.20;;
35909;SDS011;22004;49.120;-0.200;2023-03-14T03:26:21;2.92;;;1.00;;
35909;SDS011;22004;49.120;-0.200;2023-03-14T03:28:47;10.13;;;1.55;;
35909;SDS011;22004;49.120;-0.200;2023-03-14T03:31:14;7.43;;;0.77;;
35909;SDS011;22004;49.120;-0.200;2023-03-14T03:33:40;5.78;;;1.30;;
35909;SDS011;22004;49.120;-0.200;2023-03-14T03:36:05;5.15;;;1.15;;
35909;SDS011;22004;49.120;-0.200;2023-03-14T03:38:31;7.55;;;1.27;;
35909;SDS011;22004;49.120;-0.200;2023-03-14T03:40:57;6.53;;;1.38;;
35909;SDS011;22004;49.120;-0.200;2023-03-14T03:43:22;3.72;;;0.93;;
35909;SDS011;22004;49.120;-0.200;2023-03-14T03:45:47;7.15;;;1.27;;
35909;SDS011;22004;49.120;-0.200;2023-03-14T03:48:12;6.82;;;1.63;;
35909;SDS011;22004;49.120;-0.200;2023-03-14T03:50:43;3.20;;;0.88;;
35909;SDS011;22004;49.120;-0.200;2023-03-14T03:53:09;11.30;;;1.58;;
35909;SDS011;22004;49.120;-0.200;2023-03-14T03:55:34;10.77;;;1.40;;
35909;SDS011;22004;49.120;-0.200;2023-03-14T03:58:00;14.15;;;2.08;;
35909;SDS011;22004;49.120;-0.200;2023-03-14T04:00:25;9.70;;;1.70;;
35909;SDS011;22004;49.120;-0.200;2023-03-14T04:02:50;8.68;;;1.70;;
35909;SDS011;22004;49.120;-0.200;2023-03-14T04:05:16;12.68;;;1.80;;
35909;SDS011;22004;49.120;-0.200;2023-03-14T04:07:41;10.93;;;1.80;;
35909;SDS011;22004;49.120;-0.200;2023-03-14T04:10:07;9.55;;;1.60;;
35909;SDS011;22004;49.120;-0.200;2023-03-14T04:12:32;15.35;;;1.95;;
35909;SDS011;22004;49.120;-0.200;2023-03-14T04:14:58;8.38;;;1.92;;
35909;SDS011;22004;49.120;-0.200;2023-03-14T04:17:23;10.15;;;1.85;;
35909;SDS011;22004;49.120;-0.200;2023-03-14T04:19:49;5.63;;;1.17;;
35909;SDS011;22004;49.120;-0.200;2023-03-14T04:22:16;9.48;;;1.67;;
35909;SDS011;22004;49.120;-0.200;2023-03-14T04:24:41;14.80;;;2.05;;
35909;SDS011;22004;49.120;-0.200;2023-03-14T04:27:06;8.93;;;1.95;;
35909;SDS011;22004;49.120;-0.200;2023-03-14T04:29:32;11.82;;;1.90;;
35909;SDS011;22004;49.120;-0.200;2023-03-14T04:31:57;9.60;;;1.80;;
35909;SDS011;22004;49.120;-0.200;2023-03-14T04:34:22;9.40;;;1.80;;
35909;SDS011;22004;49.120;-0.200;2023-03-14T04:36:48;14.77;;;2.10;;
35909;SDS011;22004;49.120;-0.200;2023-03-14T04:39:13;10.38;;;1.90;;
35909;SDS011;22004;49.120;-0.200;2023-03-14T04:41:38;14.43;;;2.28;;
35909;SDS011;22004;49.120;-0.200;2023-03-14T04:44:04;13.48;;;1.90;;
35909;SDS011;22004;49.120;-0.200;2023-03-14T04:46:29;10.65;;;2.10;;
35909;SDS011;22004;49.120;-0.200;2023-03-14T04:48:55;8.90;;;1.75;;
35909;SDS011;22004;49.120;-0.200;2023-03-14T04:51:21;11.85;;;2.00;;
35909;SDS011;22004;49.120;-0.200;2023-03-14T04:53:48;10.95;;;2.05;;
35909;SDS011;22004;49.120;-0.200;2023-03-14T04:56:13;11.30;;;1.98;;
35909;SDS011;22004;49.120;-0.200;2023-03-14T04:58:39;11.82;;;2.22;;
35909;SDS011;22004;49.120;-0.200;2023-03-14T05:01:05;17.77;;;3.40;;
35909;SDS011;22004;49.120;-0.200;2023-03-14T05:03:30;11.75;;;2.17;;
35909;SDS011;22004;49.120;-0.200;2023-03-14T05:05:56;9.10;;;2.28;;
35909;SDS011;22004;49.120;-0.200;2023-03-14T05:08:23;8.88;;;2.00;;
35909;SDS011;22004;49.120;-0.200;2023-03-14T05:10:55;13.88;;;2.40;;
35909;SDS011;22004;49.120;-0.200;2023-03-14T05:13:21;11.45;;;2.40;;
35909;SDS011;22004;49.120;-0.200;2023-03-14T05:15:47;13.38;;;2.45;;
35909;SDS011;22004;49.120;-0.200;2023-03-14T05:18:12;13.80;;;2.45;;
35909;SDS011;22004;49.120;-0.200;2023-03-14T05:20:38;12.30;;;2.10;;
35909;SDS011;22004;49.120;-0.200;2023-03-14T05:23:03;10.68;;;2.20;;
35909;SDS011;22004;49.120;-0.200;2023-03-14T05:25:28;11.95;;;2.65;;
35909;SDS011;22004;49.120;-0.200;2023-03-14T05:27:54;13.00;;;1.90;;
35909;SDS011;22004;49.120;-0.200;2023-03-14T05:30:20;13.07;;;2.13;;
35909;SDS011;22004;49.120;-0.200;2023-03-14T05:32:46;14.88;;;2.35;;
35909;SDS011;22004;49.120;-0.200;2023-03-14T05:35:12;12.88;;;2.75;;
35909;SDS011;22004;49.120;-0.200;2023-03-14T05:37:38;13.15;;;2.92;;
35909;SDS011;22004;49.120;-0.200;2023-03-14T05:40:04;18.25;;;2.80;;
35909;SDS011;22004;49.120;-0.200;2023-03-14T05:42:31;11.82;;;2.30;;
35909;SDS011;22004;49.120;-0.200;2023-03-14T05:44:57;16.45;;;2.85;;
35909;SDS011;22004;49.120;-0.200;2023-03-14T05:47:22;16.38;;;2.35;;
35909;SDS011;22004;49.120;-0.200;2023-03-14T05:49:47;13.18;;;2.90;;
35909;SDS011;22004;49.120;-0.200;2023-03-14T05:52:13;14.15;;;2.40;;
35909;SDS011;22004;49.120;-0.200;2023-03-14T05:54:39;9.73;;;2.40;;
35909;SDS011;22004;49.120;-0.200;2023-03-14T05:57:04;19.10;;;2.78;;
35909;SDS011;22004;49.120;-0.200;2023-03-14T05:59:29;20.20;;;2.60;;
35909;SDS011;22004;49.120;-0.200;2023-03-14T06:01:55;13.82;;;2.70;;
35909;SDS011;22004;49.120;-0.200;2023-03-14T06:04:20;15.10;;;2.63;;
35909;SDS011;22004;49.120;-0.200;2023-03-14T06:06:45;17.13;;;2.90;;
35909;SDS011;22004;49.120;-0.200;2023-03-14T06:09:11;16.30;;;2.80;;
35909;SDS011;22004;49.120;-0.200;2023-03-14T06:11:36;15.38;;;2.85;;
35909;SDS011;22004;49.120;-0.200;2023-03-14T06:14:02;16.80;;;2.75;;
35909;SDS011;22004;49.120;-0.200;2023-03-14T06:16:27;14.07;;;2.35;;
35909;SDS011;22004;49.120;-0.200;2023-03-14T06:18:52;13.88;;;2.33;;
35909;SDS011;22004;49.120;-0.200;2023-03-14T06:21:18;10.25;;;2.45;;
35909;SDS011;22004;49.120;-0.200;2023-03-14T06:23:44;11.52;;;2.20;;
35909;SDS011;22004;49.120;-0.200;2023-03-14T06:26:10;14.00;;;2.55;;
35909;SDS011;22004;49.120;-0.200;2023-03-14T06:28:36;8.98;;;2.05;;
35909;SDS011;22004;49.120;-0.200;2023-03-14T06:31:02;9.68;;;2.08;;
35909;SDS011;22004;49.120;-0.200;2023-03-14T06:33:28;10.13;;;2.15;;
35909;SDS011;22004;49.120;-0.200;2023-03-14T06:35:53;9.43;;;2.03;;
35909;SDS011;22004;49.120;-0.200;2023-03-14T06:38:19;12.45;;;1.88;;
35909;SDS011;22004;49.120;-0.200;2023-03-14T06:40:44;8.45;;;1.85;;
35909;SDS011;22004;49.120;-0.200;2023-03-14T06:43:09;12.25;;;1.83;;
35909;SDS011;22004;49.120;-0.200;2023-03-14T06:45:35;9.85;;;2.13;;
35909;SDS011;22004;49.120;-0.200;2023-03-14T06:48:00;11.98;;;2.20;;
35909;SDS011;22004;49.120;-0.200;2023-03-14T06:50:26;10.70;;;1.67;;
35909;SDS011;22004;49.120;-0.200;2023-03-14T06:52:51;12.60;;;1.77;;
35909;SDS011;22004;49.120;-0.200;2023-03-14T06:55:16;8.32;;;1.80;;
35909;SDS011;22004;49.120;-0.200;2023-03-14T06:57:42;8.95;;;1.73;;
35909;SDS011;22004;49.120;-0.200;2023-03-14T07:00:09;11.20;;;1.70;;
35909;SDS011;22004;49.120;-0.200;2023-03-14T07:02:36;7.20;;;1.67;;
35909;SDS011;22004;49.120;-0.200;2023-03-14T07:05:01;12.30;;;1.60;;
35909;SDS011;22004;49.120;-0.200;2023-03-14T07:07:27;11.82;;;1.80;;
35909;SDS011;22004;49.120;-0.200;2023-03-14T07:09:52;6.90;;;1.30;;
35909;SDS011;22004;49.120;-0.200;2023-03-14T07:12:18;11.80;;;1.77;;
35909;SDS011;22004;49.120;-0.200;2023-03-14T07:14:43;8.00;;;1.63;;
35909;SDS011;22004;49.120;-0.200;2023-03-14T07:17:09;9.80;;;1.70;;
35909;SDS011;22004;49.120;-0.200;2023-03-14T07:19:34;10.73;;;1.55;;
35909;SDS011;22004;49.120;-0.200;2023-03-14T07:22:00;8.13;;;1.50;;
35909;SDS011;22004;49.120;-0.200;2023-03-14T07:24:25;8.23;;;1.52;;
35909;SDS011;22004;49.120;-0.200;2023-03-14T07:26:51;11.23;;;1.55;;
35909;SDS011;22004;49.120;-0.200;2023-03-14T07:29:17;13.38;;;2.00;;
35909;SDS011;22004;49.120;-0.200;2023-03-14T07:31:42;8.20;;;1.75;;
35909;SDS011;22004;49.120;-0.200;2023-03-14T07:34:08;6.60;;;1.58;;
35909;SDS011;22004;49.120;-0.200;2023-03-14T07:36:33;13.85;;;2.08;;
35909;SDS011;22004;49.120;-0.200;2023-03-14T07:38:59;9.07;;;1.77;;
35909;SDS011;22004;49.120;-0.200;2023-03-14T07:41:24;9.18;;;1.58;;
35909;SDS011;22004;49.120;-0.200;2023-03-14T07:43:49;14.43;;;1.75;;
35909;SDS011;22004;49.120;-0.200;2023-03-14T07:46:15;13.85;;;2.15;;
35909;SDS011;22004;49.120;-0.200;2023-03-14T07:48:40;12.48;;;1.77;;
35909;SDS011;22004;49.120;-0.200;2023-03-14T07:51:06;17.75;;;2.50;;
35909;SDS011;22004;49.120;-0.200;2023-03-14T07:53:32;16.02;;;2.45;;
35909;SDS011;22004;49.120;-0.200;2023-03-14T07:55:57;8.00;;;2.00;;
35909;SDS011;22004;49.120;-0.200;2023-03-14T07:58:23;17.10;;;1.88;;
35909;SDS011;22004;49.120;-0.200;2023-03-14T08:00:48;10.48;;;2.03;;
35909;SDS011;22004;49.120;-0.200;2023-03-14T08:03:14;10.80;;;2.17;;
35909;SDS011;22004;49.120;-0.200;2023-03-14T08:05:39;19.98;;;2.97;;
35909;SDS011;22004;49.120;-0.200;2023-03-14T08:08:07;16.50;;;2.30;;
35909;SDS011;22004;49.120;-0.200;2023-03-14T08:10:32;14.15;;;2.28;;
35909;SDS011;22004;49.120;-0.200;2023-03-14T08:12:58;11.95;;;2.17;;
35909;SDS011;22004;49.120;-0.200;2023-03-14T08:15:24;13.00;;;2.10;;
35909;SDS011;22004;49.120;-0.200;2023-03-14T08:17:50;9.93;;;2.13;;
35909;SDS011;22004;49.120;-0.200;2023-03-14T08:20:19;12.27;;;2.30;;
35909;SDS011;22004;49.120;-0.200;2023-03-14T08:22:49;12.75;;;1.85;;
35909;SDS011;22004;49.120;-0.200;2023-03-14T08:25:14;19.98;;;2.60;;
35909;SDS011;22004;49.120;-0.200;2023-03-14T08:27:40;14.63;;;2.13;;
35909;SDS011;22004;49.120;-0.200;2023-03-14T08:30:07;15.48;;;2.47;;
35909;SDS011;22004;49.120;-0.200;2023-03-14T08:32:34;21.33;;;2.80;;
35909;SDS011;22004;49.120;-0.200;2023-03-14T08:35:00;11.40;;;1.88;;
35909;SDS011;22004;49.120;-0.200;2023-03-14T08:37:25;8.85;;;1.95;;
35909;SDS011;22004;49.120;-0.200;2023-03-14T08:39:52;12.68;;;1.70;;
35909;SDS011;22004;49.120;-0.200;2023-03-14T08:42:17;9.68;;;1.98;;
35909;SDS011;22004;49.120;-0.200;2023-03-14T08:44:43;12.80;;;2.42;;
35909;SDS011;22004;49.120;-0.200;2023-03-14T08:47:09;10.52;;;2.00;;
35909;SDS011;22004;49.120;-0.200;2023-03-14T08:49:34;12.38;;;2.00;;
35909;SDS011;22004;49.120;-0.200;2023-03-14T08:52:01;14.25;;;1.98;;
35909;SDS011;22004;49.120;-0.200;2023-03-14T08:54:29;12.65;;;2.85;;
35909;SDS011;22004;49.120;-0.200;2023-03-14T08:56:55;15.18;;;2.03;;
35909;SDS011;22004;49.120;-0.200;2023-03-14T08:59:21;14.18;;;1.98;;
35909;SDS011;22004;49.120;-0.200;2023-03-14T09:01:47;13.00;;;2.13;;
35909;SDS011;22004;49.120;-0.200;2023-03-14T09:04:12;14.48;;;2.50;;
35909;SDS011;22004;49.120;-0.200;2023-03-14T09:06:38;12.27;;;2.22;;
35909;SDS011;22004;49.120;-0.200;2023-03-14T09:09:04;15.75;;;2.50;;
35909;SDS011;22004;49.120;-0.200;2023-03-14T09:11:30;14.70;;;2.75;;
35909;SDS011;22004;49.120;-0.200;2023-03-14T09:13:55;17.23;;;2.45;;
35909;SDS011;22004;49.120;-0.200;2023-03-14T09:16:21;22.73;;;2.83;;
35909;SDS011;22004;49.120;-0.200;2023-03-14T09:18:47;14.23;;;2.85;;
35909;SDS011;22004;49.120;-0.200;2023-03-14T09:21:12;15.60;;;2.50;;
35909;SDS011;22004;49.120;-0.200;2023-03-14T09:23:38;19.42;;;3.78;;
35909;SDS011;22004;49.120;-0.200;2023-03-14T09:26:04;17.05;;;2.00;;
35909;SDS011;22004;49.120;-0.200;2023-03-14T09:28:29;12.88;;;2.78;;
35909;SDS011;22004;49.120;-0.200;2023-03-14T09:30:55;7.97;;;1.63;;
35909;SDS011;22004;49.120;-0.200;2023-03-14T09:33:21;7.03;;;1.48;;
35909;SDS011;22004;49.120;-0.200;2023-03-14T09:35:46;14.85;;;2.10;;
35909;SDS011;22004;49.120;-0.200;2023-03-14T09:38:12;11.50;;;2.22;;
35909;SDS011;22004;49.120;-0.200;2023-03-14T09:40:37;21.95;;;3.15;;
35909;SDS011;22004;49.120;-0.200;2023-03-14T09:43:03;13.13;;;2.78;;
35909;SDS011;22004;49.120;-0.200;2023-03-14T09:45:34;16.73;;;2.35;;
35909;SDS011;22004;49.120;-0.200;2023-03-14T09:48:02;11.57;;;2.25;;
35909;SDS011;22004;49.120;-0.200;2023-03-14T09:50:33;17.95;;;3.47;;
35909;SDS011;22004;49.120;-0.200;2023-03-14T09:53:08;18.38;;;2.03;;
35909;SDS011;22004;49.120;-0.200;2023-03-14T09:55:38;10.40;;;1.88;;
35909;SDS011;22004;49.120;-0.200;2023-03-14T09:58:08;7.95;;;1.20;;
35909;SDS011;22004;49.120;-0.200;2023-03-14T10:00:36;16.45;;;2.35;;
35909;SDS011;22004;49.120;-0.200;2023-03-14T10:05:36;12.82;;;2.20;;
35909;SDS011;22004;49.120;-0.200;2023-03-14T10:08:02;15.75;;;2.65;;
35909;SDS011;22004;49.120;-0.200;2023-03-14T10:10:27;14.32;;;2.28;;
35909;SDS011;22004;49.120;-0.200;2023-03-14T10:13:10;12.32;;;2.25;;
35909;SDS011;22004;49.120;-0.200;2023-03-14T10:15:39;15.05;;;2.33;;
35909;SDS011;22004;49.120;-0.200;2023-03-14T10:18:09;11.27;;;1.90;;
35909;SDS011;22004;49.120;-0.200;2023-03-14T10:20:44;7.82;;;1.42;;
35909;SDS011;22004;49.120;-0.200;2023-03-14T10:25:38;12.82;;;2.13;;
35909;SDS011;22004;49.120;-0.200;2023-03-14T10:28:10;12.00;;;2.00;;
35909;SDS011;22004;49.120;-0.200;2023-03-14T10:30:48;12.40;;;2.17;;
35909;SDS011;22004;49.120;-0.200;2023-03-14T10:35:42;10.35;;;1.90;;
35909;SDS011;22004;49.120;-0.200;2023-03-14T10:38:10;8.52;;;1.77;;
35909;SDS011;22004;49.120;-0.200;2023-03-14T10:40:40;8.82;;;1.35;;
35909;SDS011;22004;49.120;-0.200;2023-03-14T10:43:13;8.90;;;1.90;;
35909;SDS011;22004;49.120;-0.200;2023-03-14T10:45:42;10.77;;;2.08;;
35909;SDS011;22004;49.120;-0.200;2023-03-14T10:48:21;18.33;;;2.45;;
35909;SDS011;22004;49.120;-0.200;2023-03-14T10:53:29;13.50;;;2.20;;
35909;SDS011;22004;49.120;-0.200;2023-03-14T10:55:58;16.80;;;2.00;;
35909;SDS011;22004;49.120;-0.200;2023-03-14T10:58:28;8.80;;;2.15;;
35909;SDS011;22004;49.120;-0.200;2023-03-14T11:01:03;12.48;;;3.00;;
35909;SDS011;22004;49.120;-0.200;2023-03-14T11:14:54;10.38;;;2.28;;
35909;SDS011;22004;49.120;-0.200;2023-03-14T11:20:17;14.05;;;2.05;;
35909;SDS011;22004;49.120;-0.200;2023-03-14T11:25:32;19.65;;;2.88;;
35909;SDS011;22004;49.120;-0.200;2023-03-14T11:30:53;15.88;;;2.47;;
35909;SDS011;22004;49.120;-0.200;2023-03-14T11:33:28;10.65;;;2.13;;
35909;SDS011;22004;49.120;-0.200;2023-03-14T11:36:08;17.13;;;1.90;;
35909;SDS011;22004;49.120;-0.200;2023-03-14T11:38:49;11.27;;;2.07;;
35909;SDS011;22004;49.120;-0.200;2023-03-14T11:41:59;12.30;;;2.28;;
35909;SDS011;22004;49.120;-0.200;2023-03-14T11:47:12;10.25;;;2.67;;
35909;SDS011;22004;49.120;-0.200;2023-03-14T11:49:50;13.18;;;2.22;;
35909;SDS011;22004;49.120;-0.200;2023-03-14T11:52:38;13.57;;;2.33;;
35909;SDS011;22004;49.120;-0.200;2023-03-14T11:57:41;15.38;;;2.78;;
35909;SDS011;22004;49.120;-0.200;2023-03-14T12:00:13;15.27;;;3.15;;
35909;SDS011;22004;49.120;-0.200;2023-03-14T12:05:25;16.60;;;2.50;;
35909;SDS011;22004;49.120;-0.200;2023-03-14T12:13:12;5.73;;;1.50;;
35909;SDS011;22004;49.120;-0.200;2023-03-14T12:15:40;7.18;;;1.50;;
35909;SDS011;22004;49.120;-0.200;2023-03-14T12:18:25;11.68;;;2.53;;
35909;SDS011;22004;49.120;-0.200;2023-03-14T12:20:58;10.93;;;1.73;;
35909;SDS011;22004;49.120;-0.200;2023-03-14T12:23:26;6.73;;;1.63;;
35909;SDS011;22004;49.120;-0.200;2023-03-14T12:26:06;11.85;;;1.88;;
35909;SDS011;22004;49.120;-0.200;2023-03-14T12:28:33;14.23;;;2.25;;
35909;SDS011;22004;49.120;-0.200;2023-03-14T12:31:28;9.68;;;1.60;;
35909;SDS011;22004;49.120;-0.200;2023-03-14T12:39:22;8.93;;;1.80;;
35909;SDS011;22004;49.120;-0.200;2023-03-14T12:42:02;5.95;;;1.80;;
35909;SDS011;22004;49.120;-0.200;2023-03-14T12:46:56;11.30;;;2.10;;
35909;SDS011;22004;49.120;-0.200;2023-03-14T12:49:28;12.73;;;1.70;;
35909;SDS011;22004;49.120;-0.200;2023-03-14T12:51:58;10.27;;;1.70;;
35909;SDS011;22004;49.120;-0.200;2023-03-14T12:59:46;3.65;;;1.63;;
35909;SDS011;22004;49.120;-0.200;2023-03-14T13:04:48;4.50;;;1.08;;
35909;SDS011;22004;49.120;-0.200;2023-03-14T13:07:34;4.50;;;1.13;;
35909;SDS011;22004;49.120;-0.200;2023-03-14T13:10:23;7.50;;;1.48;;
35909;SDS011;22004;49.120;-0.200;2023-03-14T13:12:55;6.20;;;1.43;;
35909;SDS011;22004;49.120;-0.200;2023-03-14T13:15:43;6.55;;;1.20;;
35909;SDS011;22004;49.120;-0.200;2023-03-14T13:20:36;12.13;;;1.40;;
35909;SDS011;22004;49.120;-0.200;2023-03-14T13:23:05;7.43;;;1.63;;
35909;SDS011;22004;49.120;-0.200;2023-03-14T13:25:43;6.53;;;1.20;;
35909;SDS011;22004;49.120;-0.200;2023-03-14T13:28:10;11.13;;;1.75;;
35909;SDS011;22004;49.120;-0.200;2023-03-14T13:30:40;7.80;;;1.67;;
35909;SDS011;22004;49.120;-0.200;2023-03-14T13:33:11;5.35;;;1.25;;
35909;SDS011;22004;49.120;-0.200;2023-03-14T13:35:40;7.53;;;1.77;;
35909;SDS011;22004;49.120;-0.200;2023-03-14T13:38:15;10.35;;;1.30;;
35909;SDS011;22004;49.120;-0.200;2023-03-14T13:40:43;5.35;;;1.27;;
35909;SDS011;22004;49.120;-0.200;2023-03-14T13:43:14;8.05;;;1.70;;
35909;SDS011;22004;49.120;-0.200;2023-03-14T13:48:15;6.32;;;1.23;;
35909;SDS011;22004;49.120;-0.200;2023-03-14T13:51:01;11.82;;;1.95;;
35909;SDS011;22004;49.120;-0.200;2023-03-14T13:53:29;6.40;;;1.58;;
35909;SDS011;22004;49.120;-0.200;2023-03-14T13:55:55;7.93;;;1.45;;
35909;SDS011;22004;49.120;-0.200;2023-03-14T13:58:28;8.38;;;1.50;;
35909;SDS011;22004;49.120;-0.200;2023-03-14T14:00:56;11.73;;;1.75;;
35909;SDS011;22004;49.120;-0.200;2023-03-14T14:03:24;12.60;;;2.38;;
35909;SDS011;22004;49.120;-0.200;2023-03-14T14:05:50;8.48;;;1.80;;
35909;SDS011;22004;49.120;-0.200;2023-03-14T14:08:16;10.02;;;1.92;;
35909;SDS011;22004;49.120;-0.200;2023-03-14T14:10:41;11.38;;;1.75;;
35909;SDS011;22004;49.120;-0.200;2023-03-14T14:13:08;14.82;;;2.25;;
35909;SDS011;22004;49.120;-0.200;2023-03-14T14:15:41;9.32;;;1.70;;
35909;SDS011;22004;49.120;-0.200;2023-03-14T14:18:12;9.35;;;1.90;;
35909;SDS011;22004;49.120;-0.200;2023-03-14T14:20:42;12.00;;;1.52;;
35909;SDS011;22004;49.120;-0.200;2023-03-14T14:23:11;12.82;;;1.98;;
35909;SDS011;22004;49.120;-0.200;2023-03-14T14:25:39;10.52;;;1.80;;
35909;SDS011;22004;49.120;-0.200;2023-03-14T14:28:15;7.95;;;1.40;;
35909;SDS011;22004;49.120;-0.200;2023-03-14T14:30:46;11.60;;;2.03;;
35909;SDS011;22004;49.120;-0.200;2023-03-14T14:33:16;6.38;;;1.25;;
35909;SDS011;22004;49.120;-0.200;2023-03-14T14:35:49;7.68;;;1.50;;
35909;SDS011;22004;49.120;-0.200;2023-03-14T14:38:17;7.05;;;1.42;;
35909;SDS011;22004;49.120;-0.200;2023-03-14T14:40:45;9.32;;;1.95;;
35909;SDS011;22004;49.120;-0.200;2023-03-14T14:43:15;8.43;;;1.88;;
35909;SDS011;22004;49.120;-0.200;2023-03-14T14:45:44;10.88;;;1.77;;
35909;SDS011;22004;49.120;-0.200;2023-03-14T14:48:12;9.27;;;1.83;;
35909;SDS011;22004;49.120;-0.200;2023-03-14T14:50:39;7.35;;;1.75;;
35909;SDS011;22004;49.120;-0.200;2023-03-14T14:53:22;7.22;;;1.85;;
35909;SDS011;22004;49.120;-0.200;2023-03-14T14:56:15;7.47;;;1.95;;
35909;SDS011;22004;49.120;-0.200;2023-03-14T14:58:44;7.82;;;1.67;;
35909;SDS011;22004;49.120;-0.200;2023-03-14T15:01:13;7.55;;;1.60;;
35909;SDS011;22004;49.120;-0.200;2023-03-14T15:03:42;9.88;;;1.50;;
35909;SDS011;22004;49.120;-0.200;2023-03-14T15:06:08;12.93;;;1.70;;
35909;SDS011;22004;49.120;-0.200;2023-03-14T15:08:36;6.00;;;1.35;;
35909;SDS011;22004;49.120;-0.200;2023-03-14T15:11:02;7.15;;;1.42;;
35909;SDS011;22004;49.120;-0.200;2023-03-14T15:13:28;8.90;;;1.70;;
35909;SDS011;22004;49.120;-0.200;2023-03-14T15:15:53;8.60;;;1.58;;
35909;SDS011;22004;49.120;-0.200;2023-03-14T15:18:20;9.93;;;1.48;;
35909;SDS011;22004;49.120;-0.200;2023-03-14T15:20:47;7.88;;;1.50;;
35909;SDS011;22004;49.120;-0.200;2023-03-14T15:23:13;8.75;;;1.40;;
35909;SDS011;22004;49.120;-0.200;2023-03-14T15:25:40;7.03;;;1.13;;
35909;SDS011;22004;49.120;-0.200;2023-03-14T15:28:15;4.50;;;1.25;;
35909;SDS011;22004;49.120;-0.200;2023-03-14T15:30:48;4.60;;;0.95;;
35909;SDS011;22004;49.120;-0.200;2023-03-14T15:33:15;8.75;;;1.20;;
35909;SDS011;22004;49.120;-0.200;2023-03-14T15:35:41;3.97;;;1.23;;
35909;SDS011;22004;49.120;-0.200;2023-03-14T15:38:09;7.43;;;1.33;;
35909;SDS011;22004;49.120;-0.200;2023-03-14T15:40:39;7.30;;;1.35;;
35909;SDS011;22004;49.120;-0.200;2023-03-14T15:43:05;8.30;;;1.50;;
35909;SDS011;22004;49.120;-0.200;2023-03-14T15:45:30;11.05;;;1.90;;
35909;SDS011;22004;49.120;-0.200;2023-03-14T15:47:56;5.95;;;1.30;;